Pagina principale
METAR-TAF:

METAR-TAF

Aeroporti :

Aeroporto di Francoforte-Hahn

Hahn, Germania

latitudine: 49-57N, longitudine: 007-16E, altezza: 491 m

Osservazione

Il bollettino è stato emesso 38 minuti fa, alle 16:50 UTC
Vento 7 kt da est/nord-est, variando fra nord/nord-est e sud
Temperature 18°C
Umidità 42%
Pressione 1020 hPa
Visibilità 10 km o più
nessuna nube inferiore a 1500 m e nessun cumulonembo

METAR: EDFH 311650Z 07007KT 020V170 CAVOK 18/05 Q1020

Ora: 19:28 (17:28 UTC)

Previsione

Il bollettino è stato emesso 6 ore e 28 minuti fa, alle 11:00 UTC
Previsione valida dal 31 alle 12 UTC al 01 alle 12 UTC
Vento 9 kt da est
Visibilità 10 km o più
Poco nuvoloso ad un'altezza di 4000 ft

TAF: EDFH 311100Z 3112/0112 08009KT 9999 FEW040

Osservazioni e previsioni meteorologiche di più di 4000 aeroporti (messaggi METAR e TAF).

Le stazioni disponibili sono rappresentate dai dischi gialli e rossi sulla carta.

Puntare il mouse per vedere il nome della stazione.

Clicca sopra per visualizzare le osservazioni e previsioni meteorologiche.

Per cambiare la mappa : fare clic sui pulsanti verdi con una croce nera per ingrandire, il pulsante verde con un trattino per diminuire, o sulla freccia verde per le mappe adiacenti.


METAR-TAF: